Time;durP1;ratioP1;P1;durP2;ratioP2;P2;SDS_P1;SDS_P2;PMS_P1;PMS_P2;Temp;Humidity;BMP_temperature;BMP_pressure;BME280_temperature;BME280_humidity;BME280_pressure;Samples;Min_cycle;Max_cycle;Signal;HPM_P1;HPM_P2
2023/08/23 00:01:55;;;;;;;23.10;12.90;;;17.70;51.60;;;;;;5112825;28;20414;-53
2023/08/23 00:04:20;;;;;;;21.70;13.80;;;17.80;99.90;;;;;;5112587;28;20463;-52
2023/08/23 00:06:46;;;;;;;23.13;14.20;;;17.80;99.90;;;;;;5113008;28;20613;-52
2023/08/23 00:09:12;;;;;;;30.10;20.70;;;17.80;99.90;;;;;;5112764;28;20235;-52
2023/08/23 00:11:37;;;;;;;30.20;18.17;;;17.70;99.90;;;;;;5112535;28;20186;-52
2023/08/23 00:14:03;;;;;;;33.17;19.47;;;17.60;1.00;;;;;;5112913;28;20262;-52
2023/08/23 00:16:29;;;;;;;34.20;18.70;;;17.60;99.90;;;;;;5112768;28;20206;-53
2023/08/23 00:18:54;;;;;;;34.13;19.57;;;17.50;99.90;;;;;;5112465;28;20278;-52
2023/08/23 00:21:20;;;;;;;29.60;18.27;;;17.30;1.00;;;;;;5112613;28;20289;-52
2023/08/23 00:23:46;;;;;;;32.73;19.43;;;17.20;1.00;;;;;;5111244;28;20696;-52
2023/08/23 00:26:11;;;;;;;33.17;19.70;;;17.20;63.10;;;;;;5112736;28;20226;-52
2023/08/23 00:28:39;;;;;;;34.43;18.97;;;17.10;1.00;;;;;;5112504;28;20186;-53
2023/08/23 00:31:05;;;;;;;42.03;19.83;;;17.00;99.90;;;;;;5112612;28;20175;-52
2023/08/23 00:33:30;;;;;;;38.70;21.30;;;17.00;99.90;;;;;;5112873;28;20914;-52
2023/08/23 00:35:56;;;;;;;32.73;19.07;;;17.00;99.90;;;;;;5112512;28;20664;-52
2023/08/23 00:38:21;;;;;;;37.57;20.10;;;16.90;99.90;;;;;;5112524;28;20267;-52
2023/08/23 00:40:47;;;;;;;37.70;19.97;;;16.90;99.90;;;;;;5112482;28;20628;-51
2023/08/23 00:43:13;;;;;;;31.23;18.33;;;16.90;99.90;;;;;;5112075;28;20178;-52
2023/08/23 00:45:41;;;;;;;35.07;22.37;;;16.80;1.00;;;;;;5112370;28;20180;-52
2023/08/23 00:48:09;;;;;;;35.03;20.20;;;16.80;99.90;;;;;;5112452;28;20641;-52
2023/08/23 00:50:35;;;;;;;36.73;19.60;;;16.80;1.00;;;;;;5112223;28;20425;-52
2023/08/23 00:53:02;;;;;;;37.53;18.97;;;16.80;1.00;;;;;;5112825;28;20418;-52
2023/08/23 00:55:28;;;;;;;42.47;19.37;;;16.80;1.00;;;;;;5112337;28;20565;-52
2023/08/23 00:57:54;;;;;;;38.20;21.40;;;16.80;1.00;;;;;;5115796;28;20514;-53
2023/08/23 01:00:19;;;;;;;35.70;21.93;;;16.80;1.00;;;;;;5116103;28;20446;-53
2023/08/23 01:02:45;;;;;;;34.70;19.60;;;16.70;35.40;;;;;;5116331;28;20765;-52
2023/08/23 01:05:12;;;;;;;38.50;21.43;;;16.70;25.60;;;;;;5116538;28;20240;-52
2023/08/23 01:07:46;;;;;;;38.33;21.30;;;16.60;26.30;;;;;;5116562;28;20605;-52
2023/08/23 01:10:39;;;;;;;39.93;22.77;;;16.60;99.90;;;;;;5116203;28;20471;-52
2023/08/23 01:13:15;;;;;;;44.97;20.80;;;16.60;99.90;;;;;;5101189;28;20434;-52
2023/08/23 01:15:42;;;;;;;35.57;20.43;;;16.60;99.90;;;;;;5115901;28;20460;-52
2023/08/23 01:18:09;;;;;;;40.97;20.27;;;16.60;99.90;;;;;;5116092;28;20493;-53
2023/08/23 01:20:35;;;;;;;31.47;17.40;;;16.60;99.90;;;;;;5116026;28;20422;-53
2023/08/23 01:23:21;;;;;;;25.93;16.60;;;16.50;99.90;;;;;;5116384;28;20462;-51
2023/08/23 01:25:51;;;;;;;31.90;18.67;;;16.50;99.90;;;;;;5115958;28;20452;-52
2023/08/23 01:28:18;;;;;;;26.40;15.13;;;16.40;99.90;;;;;;5115573;28;20887;-52
2023/08/23 01:30:44;;;;;;;30.03;18.80;;;16.40;99.90;;;;;;5115973;28;20420;-52
2023/08/23 01:33:33;;;;;;;28.03;17.47;;;16.40;99.90;;;;;;5115403;28;20543;-52
2023/08/23 01:36:05;;;;;;;30.50;19.40;;;16.40;99.90;;;;;;5115114;28;20963;-52
2023/08/23 01:38:33;;;;;;;33.53;19.80;;;16.40;99.90;;;;;;5115571;28;20421;-52
2023/08/23 01:40:59;;;;;;;36.50;22.40;;;16.30;99.90;;;;;;5116185;28;20828;-53
2023/08/23 01:43:25;;;;;;;41.77;21.77;;;16.30;99.90;;;;;;5115444;28;20459;-52
2023/08/23 01:45:50;;;;;;;41.50;21.03;;;16.30;99.90;;;;;;5115458;28;20177;-52
2023/08/23 01:48:16;;;;;;;32.60;19.07;;;16.30;99.90;;;;;;5115483;28;20196;-53
2023/08/23 01:50:41;;;;;;;34.60;18.70;;;16.30;99.90;;;;;;5115457;28;20659;-51
2023/08/23 01:53:07;;;;;;;46.43;21.70;;;16.30;99.90;;;;;;5115150;28;20189;-52
2023/08/23 01:55:33;;;;;;;37.60;20.03;;;16.30;99.90;;;;;;5115285;28;20207;-52
2023/08/23 01:57:58;;;;;;;45.37;22.70;;;16.20;99.90;;;;;;5115249;28;20680;-52
2023/08/23 02:00:24;;;;;;;41.13;23.63;;;16.20;99.90;;;;;;5115094;28;20297;-53
2023/08/23 02:02:50;;;;;;;42.80;22.70;;;16.20;99.90;;;;;;5115137;28;20185;-52
2023/08/23 02:05:15;;;;;;;36.23;21.43;;;16.20;99.90;;;;;;5113996;28;20188;-51
2023/08/23 02:07:41;;;;;;;39.70;22.00;;;16.10;99.90;;;;;;5114557;28;20632;-53
2023/08/23 02:10:07;;;;;;;31.70;19.03;;;16.10;99.90;;;;;;5115321;28;20185;-51
2023/08/23 02:12:32;;;;;;;42.00;22.77;;;16.10;99.90;;;;;;5115032;28;20181;-53
2023/08/23 02:14:58;;;;;;;41.87;20.77;;;16.00;99.90;;;;;;5114852;28;20522;-51
2023/08/23 02:17:24;;;;;;;40.20;22.43;;;16.00;99.90;;;;;;5114983;28;20181;-52
2023/08/23 02:19:49;;;;;;;31.33;19.00;;;16.00;99.90;;;;;;5114606;28;20534;-53
2023/08/23 02:22:15;;;;;;;43.90;23.93;;;16.00;99.90;;;;;;5114190;28;20237;-52
2023/08/23 02:24:40;;;;;;;55.53;25.13;;;16.00;99.90;;;;;;5114828;28;20182;-52
2023/08/23 02:27:06;;;;;;;35.63;22.50;;;16.10;99.90;;;;;;5114922;28;20222;-53
2023/08/23 02:29:31;;;;;;;37.03;20.20;;;16.10;99.90;;;;;;5115177;28;20178;-53
2023/08/23 02:31:57;;;;;;;35.50;20.10;;;16.10;99.90;;;;;;5114740;28;20531;-52
2023/08/23 02:34:23;;;;;;;34.67;20.20;;;16.10;99.90;;;;;;5114352;28;20174;-52
2023/08/23 02:36:48;;;;;;;40.80;21.60;;;16.10;99.90;;;;;;5114403;28;20218;-52
2023/08/23 02:39:15;;;;;;;29.60;18.33;;;16.10;99.90;;;;;;5114412;28;20186;-53
2023/08/23 02:41:41;;;;;;;35.07;19.83;;;16.10;99.90;;;;;;5114089;28;20192;-52
2023/08/23 02:44:07;;;;;;;38.23;20.30;;;16.00;99.90;;;;;;5114336;28;20425;-51
2023/08/23 02:46:32;;;;;;;29.23;17.10;;;16.00;99.90;;;;;;5114808;28;20910;-52
2023/08/23 02:48:58;;;;;;;40.47;21.47;;;16.00;99.90;;;;;;5114480;28;20210;-53
2023/08/23 02:51:24;;;;;;;35.73;19.67;;;16.00;99.90;;;;;;5113977;28;20186;-53
2023/08/23 02:53:49;;;;;;;37.83;19.40;;;16.00;99.90;;;;;;5113856;28;20185;-52
2023/08/23 02:56:15;;;;;;;31.83;19.67;;;16.00;99.90;;;;;;5113987;28;20564;-52
2023/08/23 02:58:40;;;;;;;47.13;20.67;;;16.00;99.90;;;;;;5114272;28;20176;-52
2023/08/23 03:01:06;;;;;;;32.90;17.27;;;16.00;99.90;;;;;;5114067;28;20202;-52
2023/08/23 03:03:32;;;;;;;37.30;19.70;;;16.00;99.90;;;;;;5114340;28;20181;-52
2023/08/23 03:05:58;;;;;;;38.03;19.33;;;15.90;99.90;;;;;;5113936;28;20189;-53
2023/08/23 03:08:25;;;;;;;30.93;17.50;;;15.90;99.90;;;;;;5114051;28;20499;-54
2023/08/23 03:10:51;;;;;;;32.20;18.50;;;16.00;99.90;;;;;;5113658;28;20770;-53
2023/08/23 03:13:17;;;;;;;31.00;17.40;;;15.90;99.90;;;;;;5113872;28;20439;-53
2023/08/23 03:15:42;;;;;;;26.27;16.20;;;15.90;99.90;;;;;;5113545;28;20806;-52
2023/08/23 03:18:08;;;;;;;31.03;17.30;;;15.90;99.90;;;;;;5113143;28;20506;-52
2023/08/23 03:20:34;;;;;;;27.60;16.00;;;15.80;99.90;;;;;;5113527;28;20183;-52
2023/08/23 03:22:59;;;;;;;28.00;15.90;;;15.80;99.90;;;;;;5113354;28;20243;-52
2023/08/23 03:25:25;;;;;;;37.27;18.93;;;15.70;99.90;;;;;;5113567;28;20552;-53
2023/08/23 03:27:54;;;;;;;34.00;18.60;;;15.70;99.90;;;;;;5113523;28;20258;-52
2023/08/23 03:30:20;;;;;;;35.43;18.27;;;15.70;99.90;;;;;;5112878;28;20550;-51
2023/08/23 03:32:46;;;;;;;31.43;17.10;;;15.70;99.90;;;;;;5113435;28;20419;-53
2023/08/23 03:35:11;;;;;;;37.33;17.87;;;15.70;99.90;;;;;;5113105;28;20405;-52
2023/08/23 03:37:37;;;;;;;31.87;17.20;;;15.70;99.90;;;;;;5112931;28;20415;-52
2023/08/23 03:40:03;;;;;;;29.83;16.93;;;15.70;99.90;;;;;;5113803;28;20187;-52
2023/08/23 03:42:29;;;;;;;34.47;17.30;;;15.70;99.90;;;;;;5113321;28;20212;-52
2023/08/23 03:44:55;;;;;;;29.20;16.50;;;15.70;99.90;;;;;;5113293;28;20444;-52
2023/08/23 03:47:21;;;;;;;24.70;15.43;;;15.70;99.90;;;;;;5112854;28;20239;-52
2023/08/23 03:49:47;;;;;;;30.40;16.80;;;15.70;99.90;;;;;;5112966;28;20231;-52
2023/08/23 03:52:13;;;;;;;29.33;16.30;;;15.70;99.90;;;;;;5113185;28;20180;-52
2023/08/23 03:54:39;;;;;;;31.43;16.20;;;15.70;99.90;;;;;;5113038;28;20422;-52
2023/08/23 03:57:04;;;;;;;31.73;16.17;;;15.80;99.90;;;;;;5112916;28;20701;-52
2023/08/23 03:59:30;;;;;;;33.30;17.10;;;15.80;99.90;;;;;;5113207;28;20175;-52
2023/08/23 04:01:56;;;;;;;30.73;16.80;;;15.80;99.90;;;;;;5112829;28;20372;-52
2023/08/23 04:04:21;;;;;;;30.07;15.43;;;15.80;99.90;;;;;;5112590;28;20183;-52
2023/08/23 04:06:47;;;;;;;30.30;16.33;;;15.80;99.90;;;;;;5113266;28;20193;-52
2023/08/23 04:09:13;;;;;;;44.10;19.53;;;15.80;99.90;;;;;;5112864;28;20176;-52
2023/08/23 04:11:39;;;;;;;31.53;15.87;;;15.80;99.90;;;;;;5112539;28;20177;-52
2023/08/23 04:14:04;;;;;;;35.87;16.30;;;15.80;99.90;;;;;;5112654;28;20421;-52
2023/08/23 04:16:30;;;;;;;29.53;15.37;;;15.80;99.90;;;;;;5112797;28;20258;-52
2023/08/23 04:18:55;;;;;;;27.17;15.47;;;15.80;99.90;;;;;;5112281;28;20183;-52
2023/08/23 04:21:21;;;;;;;27.37;15.50;;;15.80;99.90;;;;;;5112487;28;20342;-52
2023/08/23 04:23:47;;;;;;;24.00;14.47;;;15.90;99.90;;;;;;5112997;28;20180;-52
2023/08/23 04:26:13;;;;;;;33.20;16.93;;;15.90;99.90;;;;;;5112666;28;20228;-53
2023/08/23 04:28:39;;;;;;;22.47;13.53;;;15.90;99.90;;;;;;5112637;28;20197;-52
2023/08/23 04:31:04;;;;;;;24.07;13.77;;;15.90;99.90;;;;;;5115830;28;20414;-52
2023/08/23 04:33:30;;;;;;;28.13;14.80;;;15.90;99.90;;;;;;5116620;28;20183;-53
2023/08/23 04:35:56;;;;;;;33.83;14.87;;;15.90;99.90;;;;;;5116582;28;20349;-52
2023/08/23 04:38:21;;;;;;;28.87;14.33;;;15.90;99.90;;;;;;5116983;28;20188;-51
2023/08/23 04:40:47;;;;;;;26.37;13.57;;;15.90;99.90;;;;;;5116632;28;20180;-51
2023/08/23 04:43:12;;;;;;;21.60;12.47;;;15.90;99.90;;;;;;5116947;28;21040;-52
2023/08/23 04:45:39;;;;;;;30.43;14.67;;;15.90;99.90;;;;;;5116483;28;20192;-52
2023/08/23 04:48:05;;;;;;;25.53;15.07;;;15.90;99.90;;;;;;5116745;28;20640;-52
2023/08/23 04:50:32;;;;;;;21.63;13.00;;;15.80;99.90;;;;;;5116289;28;20940;-52
2023/08/23 04:52:58;;;;;;;21.63;13.40;;;15.90;99.90;;;;;;5116347;28;20425;-53
2023/08/23 04:55:24;;;;;;;27.63;14.43;;;15.80;99.90;;;;;;5116291;28;20971;-52
2023/08/23 04:57:50;;;;;;;36.00;16.30;;;15.80;99.90;;;;;;5116666;28;20227;-52
2023/08/23 05:00:16;;;;;;;23.83;14.57;;;15.80;99.90;;;;;;5115990;28;20188;-52
2023/08/23 05:02:41;;;;;;;32.13;17.03;;;15.90;99.90;;;;;;5116435;28;20185;-52
2023/08/23 05:05:07;;;;;;;31.77;17.50;;;15.90;99.90;;;;;;5116883;28;20426;-52
2023/08/23 05:07:36;;;;;;;32.30;18.80;;;16.00;99.90;;;;;;5116736;28;20241;-52
2023/08/23 05:10:04;;;;;;;34.20;18.43;;;16.00;99.90;;;;;;5116276;28;20190;-52
2023/08/23 05:12:31;;;;;;;33.17;18.23;;;16.10;99.90;;;;;;5116132;28;20913;-53
2023/08/23 05:14:57;;;;;;;32.07;18.73;;;16.10;99.90;;;;;;5116086;28;20487;-52
2023/08/23 05:17:23;;;;;;;35.87;16.70;;;16.20;99.90;;;;;;5115921;28;20957;-52
2023/08/23 05:19:48;;;;;;;32.63;16.77;;;16.20;99.90;;;;;;5115944;28;20630;-53
2023/08/23 05:22:14;;;;;;;25.23;15.00;;;16.30;99.90;;;;;;5116151;28;20221;-52
2023/08/23 05:24:39;;;;;;;34.03;16.03;;;16.30;99.90;;;;;;5116032;28;20511;-52
2023/08/23 05:27:05;;;;;;;31.13;16.10;;;16.30;99.90;;;;;;5116004;28;20332;-52
2023/08/23 05:29:30;;;;;;;26.97;16.83;;;16.40;99.90;;;;;;5115453;28;20180;-52
2023/08/23 05:31:56;;;;;;;26.13;16.77;;;16.40;99.90;;;;;;5115896;28;20652;-53
2023/08/23 05:34:23;;;;;;;24.60;17.03;;;16.50;99.90;;;;;;5115480;28;20250;-52
2023/08/23 05:36:48;;;;;;;26.10;14.43;;;16.50;99.90;;;;;;5115923;28;20482;-51
2023/08/23 05:39:14;;;;;;;30.83;15.87;;;16.60;99.90;;;;;;5115526;28;20507;-53
2023/08/23 05:41:39;;;;;;;26.43;16.57;;;16.70;99.90;;;;;;5114526;28;20205;-53
2023/08/23 05:44:05;;;;;;;24.50;15.40;;;16.70;99.90;;;;;;5115967;28;20181;-52
2023/08/23 05:46:30;;;;;;;22.37;14.93;;;16.80;99.90;;;;;;5115454;28;20192;-53
2023/08/23 05:48:56;;;;;;;33.47;16.60;;;16.90;99.90;;;;;;5115558;28;20183;-52
2023/08/23 05:51:21;;;;;;;23.67;14.67;;;17.00;99.90;;;;;;5115704;28;20572;-53
2023/08/23 05:53:47;;;;;;;24.57;15.80;;;17.10;99.90;;;;;;5114921;28;20173;-53
2023/08/23 05:56:12;;;;;;;22.23;14.13;;;17.30;99.90;;;;;;5115461;28;20208;-52
2023/08/23 05:58:38;;;;;;;16.60;11.63;;;17.50;99.90;;;;;;5114800;28;20189;-52
2023/08/23 06:01:04;;;;;;;16.57;12.30;;;17.60;99.90;;;;;;5115520;28;20175;-51
2023/08/23 06:03:29;;;;;;;17.57;11.50;;;17.80;99.90;;;;;;5114945;28;20563;-54
2023/08/23 06:05:55;;;;;;;19.87;10.83;;;18.10;99.90;;;;;;5114607;28;20292;-54
2023/08/23 06:08:22;;;;;;;16.13;10.57;;;18.30;99.90;;;;;;5115117;28;20183;-53
2023/08/23 06:10:47;;;;;;;22.60;12.03;;;18.50;99.90;;;;;;5114904;28;20717;-53
2023/08/23 06:13:13;;;;;;;17.97;10.33;;;18.70;92.10;;;;;;5115053;28;20504;-52
2023/08/23 06:15:39;;;;;;;17.33;10.47;;;18.90;1.00;;;;;;5114465;28;20575;-53
2023/08/23 06:18:04;;;;;;;17.60;9.50;;;19.00;1.00;;;;;;5113735;28;20251;-53
2023/08/23 06:20:30;;;;;;;15.73;10.00;;;19.10;99.90;;;;;;5113979;28;20191;-54
2023/08/23 06:22:57;;;;;;;11.87;9.67;;;19.10;26.60;;;;;;5114368;28;20231;-53
2023/08/23 06:25:23;;;;;;;13.93;9.00;;;19.10;99.90;;;;;;5114802;28;20190;-53
2023/08/23 06:27:48;;;;;;;17.33;9.00;;;19.20;99.90;;;;;;5114532;28;20414;-53
2023/08/23 06:30:17;;;;;;;14.63;8.90;;;19.30;1.00;;;;;;5114690;28;20207;-52
2023/08/23 06:32:47;;;;;;;16.70;9.00;;;19.50;1.00;;;;;;5114308;28;20233;-54
2023/08/23 06:35:16;;;;;;;13.23;8.63;;;19.70;1.00;;;;;;5114517;28;20445;-53
2023/08/23 06:37:43;;;;;;;15.13;7.30;;;19.90;1.00;;;;;;5114450;28;20940;-52
2023/08/23 06:40:10;;;;;;;14.10;8.00;;;20.10;1.00;;;;;;5114852;28;20437;-53
2023/08/23 06:42:37;;;;;;;10.10;6.30;;;20.30;1.00;;;;;;5114434;28;20435;-53
2023/08/23 06:45:03;;;;;;;10.33;6.50;;;20.40;99.90;;;;;;5114593;28;20425;-52
2023/08/23 06:47:28;;;;;;;8.73;6.90;;;20.50;99.90;;;;;;5114421;28;20408;-53
2023/08/23 06:49:54;;;;;;;11.97;6.20;;;20.60;99.90;;;;;;5113345;28;20422;-53
2023/08/23 06:52:19;;;;;;;7.50;6.13;;;20.70;99.90;;;;;;5113181;28;20180;-53
2023/08/23 06:54:45;;;;;;;6.43;5.17;;;20.80;99.90;;;;;;5114400;28;20226;-53
2023/08/23 06:57:11;;;;;;;11.47;5.50;;;20.80;99.90;;;;;;5114059;28;20242;-53
2023/08/23 06:59:36;;;;;;;7.70;6.27;;;20.80;99.90;;;;;;5114565;28;20632;-53
2023/08/23 07:02:03;;;;;;;11.60;5.90;;;20.70;74.00;;;;;;5113618;28;20173;-52
2023/08/23 07:04:28;;;;;;;7.70;5.13;;;20.70;94.80;;;;;;5114180;28;20176;-53
2023/08/23 07:06:54;;;;;;;8.67;5.10;;;20.60;92.80;;;;;;5113777;28;20437;-53
2023/08/23 07:09:20;;;;;;;10.40;5.43;;;20.40;99.90;;;;;;5114099;28;20172;-53
2023/08/23 07:11:45;;;;;;;8.87;5.40;;;20.20;99.90;;;;;;5113952;28;20174;-53
2023/08/23 07:14:11;;;;;;;9.83;4.97;;;19.90;99.90;;;;;;5113831;28;20187;-52
2023/08/23 07:16:36;;;;;;;10.20;4.60;;;19.70;99.90;;;;;;5114224;28;20204;-53
2023/08/23 07:19:03;;;;;;;8.00;4.33;;;19.90;1.00;;;;;;5113790;28;20647;-52
2023/08/23 07:21:29;;;;;;;6.73;4.83;;;20.30;99.90;;;;;;5113392;28;20239;-53
2023/08/23 07:23:55;;;;;;;4.63;3.87;;;20.80;99.90;;;;;;5113184;28;20493;-53
2023/08/23 07:26:21;;;;;;;9.63;4.87;;;20.80;99.90;;;;;;5113379;28;20425;-53
2023/08/23 07:28:47;;;;;;;8.00;3.60;;;20.70;96.70;;;;;;5113749;28;20497;-52
2023/08/23 07:31:12;;;;;;;6.73;3.87;;;20.50;99.90;;;;;;5113496;28;20179;-52
2023/08/23 07:33:38;;;;;;;7.73;4.40;;;20.40;99.90;;;;;;5113715;28;20177;-52
2023/08/23 07:36:04;;;;;;;5.27;4.77;;;20.50;99.90;;;;;;5113443;28;20212;-53
2023/08/23 07:38:32;;;;;;;7.40;4.20;;;20.50;99.90;;;;;;5113482;28;20214;-52
2023/08/23 07:40:59;;;;;;;9.80;4.10;;;20.50;99.90;;;;;;5113227;28;20426;-52
2023/08/23 07:43:25;;;;;;;8.10;4.03;;;20.40;97.80;;;;;;5113059;28;20498;-52
2023/08/23 07:45:52;;;;;;;8.80;3.67;;;20.30;99.90;;;;;;5113456;28;20509;-51
2023/08/23 07:48:18;;;;;;;6.13;3.80;;;20.40;99.90;;;;;;5113302;28;20762;-52
2023/08/23 07:50:48;;;;;;;6.00;3.30;;;20.60;99.90;;;;;;5113314;28;20417;-51
2023/08/23 07:53:13;;;;;;;4.07;3.57;;;20.80;99.90;;;;;;5113196;28;20180;-52
2023/08/23 07:55:39;;;;;;;6.40;3.87;;;21.00;1.00;;;;;;5113197;28;20465;-51
2023/08/23 07:58:04;;;;;;;14.10;4.17;;;20.80;39.20;;;;;;5112854;28;20208;-51
2023/08/23 08:00:31;;;;;;;4.30;3.50;;;21.40;1.00;;;;;;5112821;28;20180;-52
2023/08/23 08:02:57;;;;;;;4.00;3.20;;;22.00;1.00;;;;;;5113043;28;20562;-52
2023/08/23 08:05:22;;;;;;;6.33;4.00;;;22.50;1.00;;;;;;5112183;28;20417;-53
2023/08/23 08:07:48;;;;;;;6.03;4.13;;;22.40;1.00;;;;;;5112876;28;20172;-52
2023/08/23 08:10:13;;;;;;;6.67;3.87;;;22.40;1.00;;;;;;5112677;28;20181;-52
2023/08/23 08:12:39;;;;;;;4.00;3.33;;;22.20;1.00;;;;;;5113264;28;20176;-52
2023/08/23 08:15:06;;;;;;;4.20;2.87;;;22.40;1.00;;;;;;5112876;28;20625;-52
2023/08/23 08:17:33;;;;;;;8.20;2.83;;;23.20;1.00;;;;;;5112853;28;20188;-52
2023/08/23 08:20:05;;;;;;;6.30;2.70;;;23.90;1.00;;;;;;5112613;28;20417;-53
2023/08/23 08:22:31;;;;;;;3.87;2.40;;;23.70;1.00;;;;;;5112413;28;20929;-53
2023/08/23 08:24:57;;;;;;;6.40;2.77;;;23.40;1.00;;;;;;5112748;28;20423;-52
2023/08/23 08:27:23;;;;;;;3.90;2.70;;;23.50;1.00;;;;;;5112262;28;20483;-52
2023/08/23 08:29:49;;;;;;;2.67;2.40;;;24.10;1.00;;;;;;5112830;28;20245;-52
2023/08/23 08:32:14;;;;;;;7.10;2.57;;;24.70;1.00;;;;;;5112850;28;20610;-51
2023/08/23 08:34:40;;;;;;;8.03;2.60;;;25.10;1.00;;;;;;5112573;28;20169;-51
2023/08/23 08:37:06;;;;;;;3.23;2.17;;;24.70;1.00;;;;;;5111518;28;20243;-50
2023/08/23 08:39:32;;;;;;;5.10;2.43;;;23.80;1.00;;;;;;5112939;28;20272;-51
2023/08/23 08:42:01;;;;;;;6.00;2.10;;;23.10;1.00;;;;;;5112524;28;20497;-51
2023/08/23 08:44:27;;;;;;;6.70;2.10;;;23.00;1.00;;;;;;5112483;28;20187;-51
2023/08/23 08:46:53;;;;;;;3.20;2.00;;;23.50;1.00;;;;;;5112667;28;20411;-51
2023/08/23 08:49:18;;;;;;;2.40;2.10;;;23.80;1.00;;;;;;5112637;28;20176;-51
2023/08/23 08:51:47;;;;;;;4.23;2.40;;;24.50;1.00;;;;;;5112510;28;20177;-51
2023/08/23 08:54:17;;;;;;;3.13;1.87;;;24.90;1.00;;;;;;5112432;28;20187;-51
2023/08/23 08:56:47;;;;;;;5.90;2.10;;;25.40;1.00;;;;;;5112150;28;20481;-51
2023/08/23 08:59:16;;;;;;;3.13;1.87;;;25.90;1.00;;;;;;5112479;28;20756;-51
2023/08/23 09:01:44;;;;;;;5.17;2.00;;;26.40;1.00;;;;;;5112464;28;20410;-51
2023/08/23 09:04:12;;;;;;;3.57;2.20;;;26.60;1.00;;;;;;5112408;28;20513;-51
2023/08/23 09:06:40;;;;;;;6.53;2.40;;;26.40;1.00;;;;;;5112602;28;20429;-51
2023/08/23 09:09:06;;;;;;;3.83;1.83;;;26.10;1.00;;;;;;5112104;28;20409;-51
2023/08/23 09:11:32;;;;;;;6.70;1.80;;;25.50;1.00;;;;;;5112488;28;20419;-51
2023/08/23 09:13:58;;;;;;;2.23;1.60;;;25.10;1.00;;;;;;5112622;28;20498;-51
2023/08/23 09:16:24;;;;;;;3.03;2.00;;;25.20;1.00;;;;;;5112644;28;20549;-52
2023/08/23 09:18:50;;;;;;;2.07;1.87;;;25.70;1.00;;;;;;5115480;28;20196;-51
2023/08/23 09:21:19;;;;;;;3.90;1.80;;;26.10;1.00;;;;;;5115739;28;20467;-51
2023/08/23 09:23:46;;;;;;;2.63;2.00;;;26.10;1.00;;;;;;5116150;28;20413;-51
2023/08/23 09:26:12;;;;;;;6.40;1.80;;;26.10;1.00;;;;;;5116183;28;20429;-51
2023/08/23 09:28:38;;;;;;;2.80;1.80;;;26.30;1.00;;;;;;5116108;28;20414;-51
2023/08/23 09:31:04;;;;;;;6.77;2.37;;;25.90;1.00;;;;;;5116318;28;20180;-51
2023/08/23 09:33:35;;;;;;;5.17;2.10;;;25.40;1.00;;;;;;5115668;28;20406;-51
2023/08/23 09:36:00;;;;;;;2.53;1.80;;;24.90;1.00;;;;;;5116072;28;20310;-51
2023/08/23 09:38:26;;;;;;;1.77;1.67;;;24.90;1.00;;;;;;5115824;28;20432;-52
2023/08/23 09:40:52;;;;;;;2.70;1.63;;;25.10;1.00;;;;;;5115388;28;20177;-52
2023/08/23 09:43:18;;;;;;;4.00;1.60;;;24.90;1.00;;;;;;5115820;28;20210;-52
2023/08/23 09:45:44;;;;;;;4.90;1.97;;;24.80;1.00;;;;;;5115426;28;20200;-52
2023/08/23 09:48:11;;;;;;;2.90;1.90;;;24.70;1.00;;;;;;5115528;28;20414;-52
2023/08/23 09:50:37;;;;;;;3.43;2.13;;;24.90;1.00;;;;;;5115709;28;20506;-51
2023/08/23 09:53:05;;;;;;;2.70;1.70;;;24.90;1.00;;;;;;5115853;28;20415;-52
2023/08/23 09:55:32;;;;;;;2.80;1.93;;;24.90;1.00;;;;;;5115468;28;20541;-51
2023/08/23 09:57:59;;;;;;;3.63;1.50;;;24.80;1.00;;;;;;5115350;28;20906;-51
2023/08/23 10:00:25;;;;;;;4.57;2.17;;;24.70;1.00;;;;;;5115086;28;20505;-51
2023/08/23 10:02:53;;;;;;;3.80;1.80;;;24.40;1.00;;;;;;5115187;28;20484;-51
2023/08/23 10:05:19;;;;;;;2.47;1.63;;;24.00;1.00;;;;;;5115085;28;20418;-51
2023/08/23 10:07:45;;;;;;;2.90;1.90;;;23.90;1.00;;;;;;5115372;28;20508;-51
2023/08/23 10:10:11;;;;;;;2.97;1.87;;;24.00;1.00;;;;;;5115701;28;20426;-51
2023/08/23 10:12:46;;;;;;;2.40;1.70;;;24.30;1.00;;;;;;5115427;28;20406;-51
2023/08/23 10:15:14;;;;;;;2.87;1.50;;;24.60;1.00;;;;;;5114850;28;20210;-51
2023/08/23 10:17:42;;;;;;;2.40;1.37;;;25.10;1.00;;;;;;5115436;28;20418;-51
2023/08/23 10:20:09;;;;;;;6.50;1.63;;;25.30;1.00;;;;;;5114592;28;20430;-52
2023/08/23 10:22:36;;;;;;;5.77;2.17;;;25.40;1.00;;;;;;5114510;28;20470;-51
2023/08/23 10:25:03;;;;;;;2.73;1.67;;;25.60;1.00;;;;;;5114829;28;20457;-50
2023/08/23 10:27:33;;;;;;;3.30;2.10;;;25.90;1.00;;;;;;5114699;28;20501;-52
2023/08/23 10:30:06;;;;;;;3.33;1.37;;;26.50;1.00;;;;;;5114815;28;20403;-52
2023/08/23 10:32:38;;;;;;;2.30;1.60;;;26.80;1.00;;;;;;5114929;28;20899;-52
2023/08/23 10:35:21;;;;;;;3.70;1.33;;;27.20;1.00;;;;;;5114830;28;20414;-52
2023/08/23 10:37:47;;;;;;;2.67;1.17;;;27.50;1.00;;;;;;5096240;28;20475;-52
2023/08/23 10:40:17;;;;;;;2.50;1.30;;;27.70;1.00;;;;;;5114610;28;20415;-51
2023/08/23 10:42:42;;;;;;;3.70;1.60;;;28.20;1.00;;;;;;5114636;28;20629;-52
2023/08/23 10:45:09;;;;;;;2.57;1.50;;;28.40;1.00;;;;;;5114501;28;20552;-52
2023/08/23 10:47:37;;;;;;;4.57;1.33;;;28.30;1.00;;;;;;5114544;28;20206;-52
2023/08/23 10:50:06;;;;;;;3.93;1.40;;;28.50;1.00;;;;;;5114586;28;20956;-51
2023/08/23 10:52:32;;;;;;;1.63;1.40;;;28.50;1.00;;;;;;5114460;28;20505;-52
2023/08/23 10:54:57;;;;;;;3.40;1.50;;;28.50;1.00;;;;;;5114299;28;20458;-53
2023/08/23 10:57:23;;;;;;;3.37;1.57;;;28.70;1.00;;;;;;5113755;28;20652;-52
2023/08/23 10:59:49;;;;;;;8.47;1.50;;;28.90;1.00;;;;;;5114228;28;20187;-51
2023/08/23 11:02:15;;;;;;;2.27;1.40;;;29.20;1.00;;;;;;5114415;28;20530;-52
2023/08/23 11:04:42;;;;;;;4.60;1.50;;;29.60;1.00;;;;;;5114126;28;20629;-53
2023/08/23 11:07:08;;;;;;;1.87;1.60;;;29.90;1.00;;;;;;5113728;28;20418;-51
2023/08/23 11:09:34;;;;;;;1.70;1.50;;;30.10;1.00;;;;;;5114004;28;20468;-52
2023/08/23 11:12:00;;;;;;;2.00;1.47;;;30.00;1.00;;;;;;5113889;28;20191;-52
2023/08/23 11:14:25;;;;;;;7.20;1.50;;;30.40;1.00;;;;;;5113902;28;20498;-52
2023/08/23 11:16:51;;;;;;;4.90;3.50;;;29.90;1.00;;;;;;5113618;28;20660;-52
2023/08/23 11:19:17;;;;;;;5.27;3.20;;;28.90;1.00;;;;;;5113665;28;20700;-52
2023/08/23 11:21:43;;;;;;;2.97;2.00;;;28.60;1.00;;;;;;5113519;28;20315;-52
2023/08/23 11:24:09;;;;;;;4.77;3.60;;;28.80;1.00;;;;;;5112752;28;20498;-51
2023/08/23 11:26:37;;;;;;;4.03;1.80;;;28.90;1.00;;;;;;5112343;28;20216;-51
2023/08/23 11:29:04;;;;;;;8.33;2.33;;;29.20;1.00;;;;;;5112313;28;20260;-51
2023/08/23 11:31:33;;;;;;;4.30;2.30;;;29.10;1.00;;;;;;5112305;28;20447;-50
2023/08/23 11:34:05;;;;;;;5.20;3.03;;;28.50;1.00;;;;;;5112217;28;20415;-50
2023/08/23 11:36:37;;;;;;;2.77;2.00;;;28.60;1.00;;;;;;5111910;28;20454;-51
2023/08/23 11:39:06;;;;;;;5.20;3.30;;;28.90;1.00;;;;;;5094711;28;20430;-50
2023/08/23 11:41:33;;;;;;;5.73;4.13;;;29.30;1.00;;;;;;5111693;28;20441;-51
2023/08/23 11:44:06;;;;;;;7.23;2.63;;;29.80;1.00;;;;;;5112142;28;20411;-51
2023/08/23 11:46:34;;;;;;;3.40;1.90;;;30.10;1.00;;;;;;5112010;28;20433;-51
2023/08/23 11:49:04;;;;;;;3.43;2.40;;;29.80;1.00;;;;;;5112040;28;20419;-50
2023/08/23 11:51:44;;;;;;;5.93;4.07;;;29.60;1.00;;;;;;5112402;28;20405;-52
2023/08/23 11:54:10;;;;;;;12.33;7.13;;;29.40;1.00;;;;;;5112223;28;20503;-51
2023/08/23 11:56:41;;;;;;;4.90;3.20;;;30.20;1.00;;;;;;5111751;28;20954;-51
2023/08/23 11:59:08;;;;;;;17.00;8.73;;;30.00;1.00;;;;;;5112245;28;20430;-51
2023/08/23 12:01:34;;;;;;;5.87;3.67;;;30.30;1.00;;;;;;5112523;28;20480;-51
2023/08/23 12:04:00;;;;;;;5.60;4.50;;;30.60;1.00;;;;;;5111968;28;20426;-51
2023/08/23 12:06:26;;;;;;;3.50;2.80;;;30.70;99.90;;;;;;5112755;28;20439;-52
2023/08/23 12:08:53;;;;;;;4.03;3.00;;;31.10;1.00;;;;;;5113047;28;20423;-51
2023/08/23 12:11:18;;;;;;;3.60;2.80;;;31.60;99.90;;;;;;5112993;28;20586;-51
2023/08/23 12:13:44;;;;;;;5.80;2.87;;;31.50;99.90;;;;;;5112556;28;20441;-52
2023/08/23 12:16:10;;;;;;;3.20;1.80;;;30.70;99.90;;;;;;5113067;28;20273;-50
2023/08/23 12:18:36;;;;;;;3.03;2.23;;;29.80;99.90;;;;;;5113020;28;20600;-50
2023/08/23 12:21:02;;;;;;;4.90;3.27;;;29.10;99.90;;;;;;5112400;28;20280;-51
2023/08/23 12:23:28;;;;;;;5.13;3.30;;;28.50;99.90;;;;;;5112773;28;20505;-51
2023/08/23 12:25:53;;;;;;;6.07;1.80;;;28.80;99.90;;;;;;5112521;28;20695;-52
2023/08/23 12:28:19;;;;;;;4.43;3.20;;;29.30;99.90;;;;;;5112618;28;20181;-52
2023/08/23 12:30:45;;;;;;;3.13;2.07;;;30.10;1.00;;;;;;5113289;28;20229;-52
2023/08/23 12:33:12;;;;;;;6.07;2.60;;;30.60;99.90;;;;;;5113128;28;20526;-52
2023/08/23 12:35:37;;;;;;;3.80;2.70;;;30.90;99.90;;;;;;5112588;28;20236;-51
2023/08/23 12:38:03;;;;;;;4.17;2.00;;;31.40;99.90;;;;;;5112676;28;20453;-50